sensor_id;sensor_type;location;lat;lon;timestamp;temperature;humidity
1075;DHT22;526;51.392;12.448;2023-03-14T00:02:23;11.20;97.30
1075;DHT22;526;51.392;12.448;2023-03-14T00:04:49;11.20;97.30
1075;DHT22;526;51.392;12.448;2023-03-14T00:07:14;11.20;97.30
1075;DHT22;526;51.392;12.448;2023-03-14T00:09:40;11.20;97.30
1075;DHT22;526;51.392;12.448;2023-03-14T00:12:06;11.20;97.30
1075;DHT22;526;51.392;12.448;2023-03-14T00:14:35;11.20;97.30
1075;DHT22;526;51.392;12.448;2023-03-14T00:17:08;11.10;97.30
1075;DHT22;526;51.392;12.448;2023-03-14T00:19:33;11.10;97.30
1075;DHT22;526;51.392;12.448;2023-03-14T00:22:01;11.10;97.30
1075;DHT22;526;51.392;12.448;2023-03-14T00:24:32;11.10;97.30
1075;DHT22;526;51.392;12.448;2023-03-14T00:27:05;11.10;97.30
1075;DHT22;526;51.392;12.448;2023-03-14T00:29:33;11.00;97.30
1075;DHT22;526;51.392;12.448;2023-03-14T00:31:58;11.00;97.30
1075;DHT22;526;51.392;12.448;2023-03-14T00:34:28;11.00;97.30
1075;DHT22;526;51.392;12.448;2023-03-14T00:36:54;11.00;97.30
1075;DHT22;526;51.392;12.448;2023-03-14T00:39:19;11.00;97.30
1075;DHT22;526;51.392;12.448;2023-03-14T00:41:45;11.00;97.30
1075;DHT22;526;51.392;12.448;2023-03-14T00:44:10;11.00;97.30
1075;DHT22;526;51.392;12.448;2023-03-14T00:46:36;11.00;97.30
1075;DHT22;526;51.392;12.448;2023-03-14T00:49:02;11.00;97.30
1075;DHT22;526;51.392;12.448;2023-03-14T00:51:27;11.00;97.30
1075;DHT22;526;51.392;12.448;2023-03-14T00:53:53;11.00;97.30
1075;DHT22;526;51.392;12.448;2023-03-14T00:56:18;11.10;97.30
1075;DHT22;526;51.392;12.448;2023-03-14T00:58:44;11.10;97.30
1075;DHT22;526;51.392;12.448;2023-03-14T01:01:15;11.10;97.30
1075;DHT22;526;51.392;12.448;2023-03-14T01:03:41;11.10;97.30
1075;DHT22;526;51.392;12.448;2023-03-14T01:06:19;11.10;97.30
1075;DHT22;526;51.392;12.448;2023-03-14T01:08:45;11.20;97.30
1075;DHT22;526;51.392;12.448;2023-03-14T01:11:14;11.20;97.30
1075;DHT22;526;51.392;12.448;2023-03-14T01:13:46;11.30;97.30
1075;DHT22;526;51.392;12.448;2023-03-14T01:16:13;11.30;97.30
1075;DHT22;526;51.392;12.448;2023-03-14T01:18:40;11.40;97.30
1075;DHT22;526;51.392;12.448;2023-03-14T01:21:18;11.40;97.30
1075;DHT22;526;51.392;12.448;2023-03-14T01:23:46;11.40;97.30
1075;DHT22;526;51.392;12.448;2023-03-14T01:26:16;11.40;97.30
1075;DHT22;526;51.392;12.448;2023-03-14T01:28:45;11.40;97.30
1075;DHT22;526;51.392;12.448;2023-03-14T01:31:14;11.40;97.30
1075;DHT22;526;51.392;12.448;2023-03-14T01:33:42;11.40;97.30
1075;DHT22;526;51.392;12.448;2023-03-14T01:36:09;11.40;97.30
1075;DHT22;526;51.392;12.448;2023-03-14T01:38:37;11.40;97.30
1075;DHT22;526;51.392;12.448;2023-03-14T01:41:05;11.40;97.30
1075;DHT22;526;51.392;12.448;2023-03-14T01:43:31;11.40;97.30
1075;DHT22;526;51.392;12.448;2023-03-14T01:48:53;11.40;97.30
1075;DHT22;526;51.392;12.448;2023-03-14T01:51:33;11.40;97.30
1075;DHT22;526;51.392;12.448;2023-03-14T01:54:08;11.40;97.30
1075;DHT22;526;51.392;12.448;2023-03-14T01:56:35;11.40;97.30
1075;DHT22;526;51.392;12.448;2023-03-14T01:59:04;11.30;97.30
1075;DHT22;526;51.392;12.448;2023-03-14T02:01:31;11.30;97.30
1075;DHT22;526;51.392;12.448;2023-03-14T02:04:00;11.40;97.30
1075;DHT22;526;51.392;12.448;2023-03-14T02:06:31;11.40;97.30
1075;DHT22;526;51.392;12.448;2023-03-14T02:09:00;11.40;97.30
1075;DHT22;526;51.392;12.448;2023-03-14T02:11:28;11.40;97.30
1075;DHT22;526;51.392;12.448;2023-03-14T02:13:55;11.40;97.30
1075;DHT22;526;51.392;12.448;2023-03-14T02:16:22;11.40;97.30
1075;DHT22;526;51.392;12.448;2023-03-14T02:18:48;11.30;97.30
1075;DHT22;526;51.392;12.448;2023-03-14T02:21:23;11.30;97.30
1075;DHT22;526;51.392;12.448;2023-03-14T02:24:22;11.30;97.30
1075;DHT22;526;51.392;12.448;2023-03-14T02:27:10;11.30;97.30
1075;DHT22;526;51.392;12.448;2023-03-14T02:29:41;11.30;97.30
1075;DHT22;526;51.392;12.448;2023-03-14T02:32:09;11.20;97.30
1075;DHT22;526;51.392;12.448;2023-03-14T02:34:34;11.30;97.30
1075;DHT22;526;51.392;12.448;2023-03-14T02:37:02;11.30;97.30
1075;DHT22;526;51.392;12.448;2023-03-14T02:39:40;11.30;97.30
1075;DHT22;526;51.392;12.448;2023-03-14T02:42:07;11.30;97.30
1075;DHT22;526;51.392;12.448;2023-03-14T02:44:32;11.30;97.30
1075;DHT22;526;51.392;12.448;2023-03-14T02:46:58;11.30;97.30
1075;DHT22;526;51.392;12.448;2023-03-14T02:49:26;11.30;97.30
1075;DHT22;526;51.392;12.448;2023-03-14T02:51:53;11.30;97.30
1075;DHT22;526;51.392;12.448;2023-03-14T02:54:19;11.30;97.30
1075;DHT22;526;51.392;12.448;2023-03-14T02:56:45;11.30;97.30
1075;DHT22;526;51.392;12.448;2023-03-14T02:59:10;11.30;97.30
1075;DHT22;526;51.392;12.448;2023-03-14T03:01:36;11.30;97.30
1075;DHT22;526;51.392;12.448;2023-03-14T03:04:01;11.30;97.30
1075;DHT22;526;51.392;12.448;2023-03-14T03:06:27;11.30;97.30
1075;DHT22;526;51.392;12.448;2023-03-14T03:08:52;11.20;97.30
1075;DHT22;526;51.392;12.448;2023-03-14T03:11:18;11.30;97.30
1075;DHT22;526;51.392;12.448;2023-03-14T03:13:44;11.30;97.30
1075;DHT22;526;51.392;12.448;2023-03-14T03:16:09;11.20;97.30
1075;DHT22;526;51.392;12.448;2023-03-14T03:18:35;11.20;97.30
1075;DHT22;526;51.392;12.448;2023-03-14T03:21:02;11.30;97.30
1075;DHT22;526;51.392;12.448;2023-03-14T03:23:28;11.30;97.30
1075;DHT22;526;51.392;12.448;2023-03-14T03:25:53;11.30;97.30
1075;DHT22;526;51.392;12.448;2023-03-14T03:28:19;11.20;97.30
1075;DHT22;526;51.392;12.448;2023-03-14T03:30:45;11.30;97.30
1075;DHT22;526;51.392;12.448;2023-03-14T03:33:11;11.30;97.30
1075;DHT22;526;51.392;12.448;2023-03-14T03:35:45;11.30;97.30
1075;DHT22;526;51.392;12.448;2023-03-14T03:38:11;11.40;97.30
1075;DHT22;526;51.392;12.448;2023-03-14T03:40:37;11.40;97.30
1075;DHT22;526;51.392;12.448;2023-03-14T03:43:02;11.40;97.30
1075;DHT22;526;51.392;12.448;2023-03-14T03:45:29;11.40;97.30
1075;DHT22;526;51.392;12.448;2023-03-14T03:47:54;11.40;97.30
1075;DHT22;526;51.392;12.448;2023-03-14T03:50:20;11.40;97.30
1075;DHT22;526;51.392;12.448;2023-03-14T03:52:46;11.40;97.30
1075;DHT22;526;51.392;12.448;2023-03-14T03:55:11;11.40;97.30
1075;DHT22;526;51.392;12.448;2023-03-14T03:57:37;11.40;97.30
1075;DHT22;526;51.392;12.448;2023-03-14T04:00:03;11.50;97.30
1075;DHT22;526;51.392;12.448;2023-03-14T04:02:30;11.50;97.30
1075;DHT22;526;51.392;12.448;2023-03-14T04:04:56;11.50;97.30
1075;DHT22;526;51.392;12.448;2023-03-14T04:07:21;11.50;97.30
1075;DHT22;526;51.392;12.448;2023-03-14T04:09:47;11.40;97.30
1075;DHT22;526;51.392;12.448;2023-03-14T04:12:12;11.40;97.30
1075;DHT22;526;51.392;12.448;2023-03-14T04:14:38;11.40;97.30
1075;DHT22;526;51.392;12.448;2023-03-14T04:17:06;11.40;97.30
1075;DHT22;526;51.392;12.448;2023-03-14T04:19:32;11.40;97.30
1075;DHT22;526;51.392;12.448;2023-03-14T04:21:57;11.40;97.30
1075;DHT22;526;51.392;12.448;2023-03-14T04:24:23;11.40;97.30
1075;DHT22;526;51.392;12.448;2023-03-14T04:26:48;11.40;97.30
1075;DHT22;526;51.392;12.448;2023-03-14T04:29:14;11.40;97.30
1075;DHT22;526;51.392;12.448;2023-03-14T04:31:39;11.40;97.30
1075;DHT22;526;51.392;12.448;2023-03-14T04:34:05;11.40;97.30
1075;DHT22;526;51.392;12.448;2023-03-14T04:36:30;11.40;97.30
1075;DHT22;526;51.392;12.448;2023-03-14T04:38:56;11.30;97.30
1075;DHT22;526;51.392;12.448;2023-03-14T04:41:21;11.30;97.30
1075;DHT22;526;51.392;12.448;2023-03-14T04:43:47;11.30;97.30
1075;DHT22;526;51.392;12.448;2023-03-14T04:46:12;11.30;97.30
1075;DHT22;526;51.392;12.448;2023-03-14T04:48:38;11.30;97.30
1075;DHT22;526;51.392;12.448;2023-03-14T04:51:04;11.20;97.30
1075;DHT22;526;51.392;12.448;2023-03-14T04:53:29;11.30;97.30
1075;DHT22;526;51.392;12.448;2023-03-14T04:55:55;11.20;97.30
1075;DHT22;526;51.392;12.448;2023-03-14T04:58:22;11.20;97.30
1075;DHT22;526;51.392;12.448;2023-03-14T05:00:47;11.30;97.30
1075;DHT22;526;51.392;12.448;2023-03-14T05:03:17;11.20;97.30
1075;DHT22;526;51.392;12.448;2023-03-14T05:05:43;11.20;97.30
1075;DHT22;526;51.392;12.448;2023-03-14T05:08:09;11.20;97.30
1075;DHT22;526;51.392;12.448;2023-03-14T05:10:35;11.20;97.30
1075;DHT22;526;51.392;12.448;2023-03-14T05:13:00;11.20;97.30
1075;DHT22;526;51.392;12.448;2023-03-14T05:15:28;11.20;97.30
1075;DHT22;526;51.392;12.448;2023-03-14T05:17:54;11.20;97.30
1075;DHT22;526;51.392;12.448;2023-03-14T05:20:20;11.20;97.30
1075;DHT22;526;51.392;12.448;2023-03-14T05:22:46;11.20;97.30
1075;DHT22;526;51.392;12.448;2023-03-14T05:25:12;11.20;97.30
1075;DHT22;526;51.392;12.448;2023-03-14T05:27:37;11.20;97.30
1075;DHT22;526;51.392;12.448;2023-03-14T05:30:05;11.10;97.30
1075;DHT22;526;51.392;12.448;2023-03-14T05:32:30;11.10;97.30
1075;DHT22;526;51.392;12.448;2023-03-14T05:34:56;11.00;97.30
1075;DHT22;526;51.392;12.448;2023-03-14T05:37:24;11.00;97.30
1075;DHT22;526;51.392;12.448;2023-03-14T05:39:50;11.00;97.30
1075;DHT22;526;51.392;12.448;2023-03-14T05:42:15;10.90;97.30
1075;DHT22;526;51.392;12.448;2023-03-14T05:44:44;10.90;97.30
1075;DHT22;526;51.392;12.448;2023-03-14T05:47:09;10.90;97.30
1075;DHT22;526;51.392;12.448;2023-03-14T05:49:35;10.90;97.30
1075;DHT22;526;51.392;12.448;2023-03-14T05:52:00;10.90;97.30
1075;DHT22;526;51.392;12.448;2023-03-14T05:54:26;10.80;97.30
1075;DHT22;526;51.392;12.448;2023-03-14T05:56:51;10.80;97.30
1075;DHT22;526;51.392;12.448;2023-03-14T05:59:17;10.80;97.30
1075;DHT22;526;51.392;12.448;2023-03-14T06:01:43;10.80;97.30
1075;DHT22;526;51.392;12.448;2023-03-14T06:04:11;10.90;97.30
1075;DHT22;526;51.392;12.448;2023-03-14T06:06:36;10.90;97.30
1075;DHT22;526;51.392;12.448;2023-03-14T06:09:02;10.90;97.30
1075;DHT22;526;51.392;12.448;2023-03-14T06:11:28;11.00;97.30
1075;DHT22;526;51.392;12.448;2023-03-14T06:13:53;11.00;97.30
1075;DHT22;526;51.392;12.448;2023-03-14T06:16:19;11.10;97.30
1075;DHT22;526;51.392;12.448;2023-03-14T06:18:44;11.10;97.30
1075;DHT22;526;51.392;12.448;2023-03-14T06:21:12;11.10;97.30
1075;DHT22;526;51.392;12.448;2023-03-14T06:23:37;11.20;97.30
1075;DHT22;526;51.392;12.448;2023-03-14T06:26:04;11.20;97.30
1075;DHT22;526;51.392;12.448;2023-03-14T06:28:30;11.20;97.30
1075;DHT22;526;51.392;12.448;2023-03-14T06:30:55;11.20;97.30
1075;DHT22;526;51.392;12.448;2023-03-14T06:33:21;11.20;97.30
1075;DHT22;526;51.392;12.448;2023-03-14T06:35:46;11.20;97.30
1075;DHT22;526;51.392;12.448;2023-03-14T06:38:12;11.20;97.30
1075;DHT22;526;51.392;12.448;2023-03-14T06:40:37;11.20;97.30
1075;DHT22;526;51.392;12.448;2023-03-14T06:43:03;11.20;97.30
1075;DHT22;526;51.392;12.448;2023-03-14T06:45:28;11.30;97.30
1075;DHT22;526;51.392;12.448;2023-03-14T06:47:57;11.30;97.30
1075;DHT22;526;51.392;12.448;2023-03-14T06:50:25;11.30;97.30
1075;DHT22;526;51.392;12.448;2023-03-14T06:52:57;11.30;97.30
1075;DHT22;526;51.392;12.448;2023-03-14T06:55:26;11.30;97.30
1075;DHT22;526;51.392;12.448;2023-03-14T06:57:57;11.40;97.30
1075;DHT22;526;51.392;12.448;2023-03-14T07:00:25;11.40;97.30
1075;DHT22;526;51.392;12.448;2023-03-14T07:03:14;11.40;97.30
1075;DHT22;526;51.392;12.448;2023-03-14T07:05:47;11.50;97.30
1075;DHT22;526;51.392;12.448;2023-03-14T07:08:16;11.50;97.30
1075;DHT22;526;51.392;12.448;2023-03-14T07:10:44;11.40;97.30
1075;DHT22;526;51.392;12.448;2023-03-14T07:13:10;11.40;97.30
1075;DHT22;526;51.392;12.448;2023-03-14T07:15:35;11.40;97.30
1075;DHT22;526;51.392;12.448;2023-03-14T07:18:01;11.40;97.30
1075;DHT22;526;51.392;12.448;2023-03-14T07:20:27;11.40;97.30
1075;DHT22;526;51.392;12.448;2023-03-14T07:22:52;11.40;97.30
1075;DHT22;526;51.392;12.448;2023-03-14T07:25:18;11.50;97.30
1075;DHT22;526;51.392;12.448;2023-03-14T07:27:45;11.50;97.30
1075;DHT22;526;51.392;12.448;2023-03-14T07:30:11;11.50;97.30
1075;DHT22;526;51.392;12.448;2023-03-14T07:32:37;11.50;97.30
1075;DHT22;526;51.392;12.448;2023-03-14T07:35:03;11.60;97.30
1075;DHT22;526;51.392;12.448;2023-03-14T07:37:29;11.60;97.30
1075;DHT22;526;51.392;12.448;2023-03-14T07:39:54;11.70;97.30
1075;DHT22;526;51.392;12.448;2023-03-14T07:42:19;11.70;97.30
1075;DHT22;526;51.392;12.448;2023-03-14T07:44:45;11.80;97.30
1075;DHT22;526;51.392;12.448;2023-03-14T07:47:10;11.90;97.30
1075;DHT22;526;51.392;12.448;2023-03-14T07:49:36;11.90;97.30
1075;DHT22;526;51.392;12.448;2023-03-14T07:52:01;11.90;97.30
1075;DHT22;526;51.392;12.448;2023-03-14T07:54:27;12.00;97.30
1075;DHT22;526;51.392;12.448;2023-03-14T07:56:52;12.00;97.30
1075;DHT22;526;51.392;12.448;2023-03-14T07:59:18;12.10;97.30
1075;DHT22;526;51.392;12.448;2023-03-14T08:01:44;12.10;97.30
1075;DHT22;526;51.392;12.448;2023-03-14T08:04:12;12.20;97.30
1075;DHT22;526;51.392;12.448;2023-03-14T08:06:38;12.20;97.30
1075;DHT22;526;51.392;12.448;2023-03-14T08:09:04;12.30;97.30
1075;DHT22;526;51.392;12.448;2023-03-14T08:11:29;12.30;97.30
1075;DHT22;526;51.392;12.448;2023-03-14T08:13:54;12.30;97.30
1075;DHT22;526;51.392;12.448;2023-03-14T08:16:20;12.30;97.30
1075;DHT22;526;51.392;12.448;2023-03-14T08:18:46;12.30;97.30
1075;DHT22;526;51.392;12.448;2023-03-14T08:21:12;12.30;97.30
1075;DHT22;526;51.392;12.448;2023-03-14T08:23:38;12.40;97.30
1075;DHT22;526;51.392;12.448;2023-03-14T08:26:03;12.50;97.30
1075;DHT22;526;51.392;12.448;2023-03-14T08:28:29;12.60;97.30
1075;DHT22;526;51.392;12.448;2023-03-14T08:30:56;12.60;97.30
1075;DHT22;526;51.392;12.448;2023-03-14T08:33:22;12.60;97.30
1075;DHT22;526;51.392;12.448;2023-03-14T08:35:48;12.60;97.30
1075;DHT22;526;51.392;12.448;2023-03-14T08:38:16;12.60;97.30
1075;DHT22;526;51.392;12.448;2023-03-14T08:40:47;12.70;97.30
1075;DHT22;526;51.392;12.448;2023-03-14T08:43:35;12.80;97.30
1075;DHT22;526;51.392;12.448;2023-03-14T08:46:07;12.80;97.10
1075;DHT22;526;51.392;12.448;2023-03-14T08:48:36;12.80;96.80
1075;DHT22;526;51.392;12.448;2023-03-14T08:51:09;12.80;96.60
1075;DHT22;526;51.392;12.448;2023-03-14T08:53:38;12.90;96.70
1075;DHT22;526;51.392;12.448;2023-03-14T08:56:07;12.90;96.40
1075;DHT22;526;51.392;12.448;2023-03-14T08:58:38;13.00;96.30
1075;DHT22;526;51.392;12.448;2023-03-14T09:01:05;13.20;96.90
1075;DHT22;526;51.392;12.448;2023-03-14T09:03:30;13.30;95.80
1075;DHT22;526;51.392;12.448;2023-03-14T09:06:00;13.40;95.50
1075;DHT22;526;51.392;12.448;2023-03-14T09:08:26;13.50;95.10
1075;DHT22;526;51.392;12.448;2023-03-14T09:10:51;13.60;95.00
1075;DHT22;526;51.392;12.448;2023-03-14T09:13:17;13.60;95.00
1075;DHT22;526;51.392;12.448;2023-03-14T09:15:42;13.60;95.20
1075;DHT22;526;51.392;12.448;2023-03-14T09:18:08;13.70;95.00
1075;DHT22;526;51.392;12.448;2023-03-14T09:20:33;13.80;94.60
1075;DHT22;526;51.392;12.448;2023-03-14T09:22:59;13.80;94.50
1075;DHT22;526;51.392;12.448;2023-03-14T09:25:24;14.00;94.70
1075;DHT22;526;51.392;12.448;2023-03-14T09:27:50;14.20;94.40
1075;DHT22;526;51.392;12.448;2023-03-14T09:30:15;14.20;93.50
1075;DHT22;526;51.392;12.448;2023-03-14T09:32:41;14.20;93.80
1075;DHT22;526;51.392;12.448;2023-03-14T09:35:06;14.20;93.30
1075;DHT22;526;51.392;12.448;2023-03-14T09:37:32;14.20;93.50
1075;DHT22;526;51.392;12.448;2023-03-14T09:39:57;14.10;93.90
1075;DHT22;526;51.392;12.448;2023-03-14T09:42:26;14.10;93.90
1075;DHT22;526;51.392;12.448;2023-03-14T09:45:05;14.00;93.60
1075;DHT22;526;51.392;12.448;2023-03-14T09:47:33;13.80;93.60
1075;DHT22;526;51.392;12.448;2023-03-14T09:50:00;13.70;94.30
1075;DHT22;526;51.392;12.448;2023-03-14T09:52:37;13.70;94.60
1075;DHT22;526;51.392;12.448;2023-03-14T09:55:10;13.70;94.50
1075;DHT22;526;51.392;12.448;2023-03-14T09:57:36;13.60;94.50
1075;DHT22;526;51.392;12.448;2023-03-14T10:00:06;13.60;94.70
1075;DHT22;526;51.392;12.448;2023-03-14T10:02:49;13.60;95.10
1075;DHT22;526;51.392;12.448;2023-03-14T10:05:36;13.60;94.70
1075;DHT22;526;51.392;12.448;2023-03-14T10:11:26;13.70;94.60
1075;DHT22;526;51.392;12.448;2023-03-14T10:14:08;13.80;94.40
1075;DHT22;526;51.392;12.448;2023-03-14T10:16:59;13.80;94.40
1075;DHT22;526;51.392;12.448;2023-03-14T10:19:35;13.70;94.50
1075;DHT22;526;51.392;12.448;2023-03-14T10:22:12;13.70;94.70
1075;DHT22;526;51.392;12.448;2023-03-14T10:24:49;13.60;94.40
1075;DHT22;526;51.392;12.448;2023-03-14T10:27:27;13.60;94.30
1075;DHT22;526;51.392;12.448;2023-03-14T10:29:59;13.50;94.80
1075;DHT22;526;51.392;12.448;2023-03-14T10:32:38;13.50;94.20
1075;DHT22;526;51.392;12.448;2023-03-14T10:35:25;13.50;94.10
1075;DHT22;526;51.392;12.448;2023-03-14T10:38:16;13.40;94.30
1075;DHT22;526;51.392;12.448;2023-03-14T10:40:57;13.40;94.80
1075;DHT22;526;51.392;12.448;2023-03-14T10:43:46;13.50;94.90
1075;DHT22;526;51.392;12.448;2023-03-14T10:46:19;13.50;94.50
1075;DHT22;526;51.392;12.448;2023-03-14T10:48:47;13.50;94.10
1075;DHT22;526;51.392;12.448;2023-03-14T10:51:24;13.60;94.10
1075;DHT22;526;51.392;12.448;2023-03-14T10:54:21;13.60;93.60
1075;DHT22;526;51.392;12.448;2023-03-14T10:56:59;13.60;93.80
1075;DHT22;526;51.392;12.448;2023-03-14T10:59:35;13.60;93.90
1075;DHT22;526;51.392;12.448;2023-03-14T11:05:15;13.50;94.50
1075;DHT22;526;51.392;12.448;2023-03-14T11:07:44;13.50;94.40
1075;DHT22;526;51.392;12.448;2023-03-14T11:13:23;13.40;94.80
1075;DHT22;526;51.392;12.448;2023-03-14T11:16:14;13.40;95.00
1075;DHT22;526;51.392;12.448;2023-03-14T11:24:25;13.50;94.70
1075;DHT22;526;51.392;12.448;2023-03-14T11:27:16;13.40;94.70
1075;DHT22;526;51.392;12.448;2023-03-14T11:29:48;13.50;94.80
1075;DHT22;526;51.392;12.448;2023-03-14T11:36:02;13.70;94.50
1075;DHT22;526;51.392;12.448;2023-03-14T11:38:43;13.80;94.80
1075;DHT22;526;51.392;12.448;2023-03-14T11:41:20;13.80;94.20
1075;DHT22;526;51.392;12.448;2023-03-14T11:43:49;13.70;94.60
1075;DHT22;526;51.392;12.448;2023-03-14T11:46:23;13.60;95.10
1075;DHT22;526;51.392;12.448;2023-03-14T11:49:01;13.50;95.10
1075;DHT22;526;51.392;12.448;2023-03-14T11:51:36;13.50;95.70
1075;DHT22;526;51.392;12.448;2023-03-14T11:57:14;13.70;96.00
1075;DHT22;526;51.392;12.448;2023-03-14T12:03:46;13.70;96.20
1075;DHT22;526;51.392;12.448;2023-03-14T12:06:47;13.70;96.20
1075;DHT22;526;51.392;12.448;2023-03-14T12:09:18;13.70;95.70
1075;DHT22;526;51.392;12.448;2023-03-14T12:12:10;13.70;95.70
1075;DHT22;526;51.392;12.448;2023-03-14T12:14:55;13.70;95.80
1075;DHT22;526;51.392;12.448;2023-03-14T12:17:35;13.70;96.10
1075;DHT22;526;51.392;12.448;2023-03-14T12:20:25;13.70;96.00
1075;DHT22;526;51.392;12.448;2023-03-14T12:22:55;13.60;95.70
1075;DHT22;526;51.392;12.448;2023-03-14T12:25:27;13.50;96.30
1075;DHT22;526;51.392;12.448;2023-03-14T12:35:52;13.70;96.40
1075;DHT22;526;51.392;12.448;2023-03-14T12:38:32;13.60;97.00
1075;DHT22;526;51.392;12.448;2023-03-14T12:41:13;13.40;97.30
1075;DHT22;526;51.392;12.448;2023-03-14T12:43:40;13.30;97.30
1075;DHT22;526;51.392;12.448;2023-03-14T12:46:21;13.40;97.30
1075;DHT22;526;51.392;12.448;2023-03-14T12:48:54;13.50;97.30
1075;DHT22;526;51.392;12.448;2023-03-14T12:51:30;13.70;97.30
1075;DHT22;526;51.392;12.448;2023-03-14T12:54:32;13.90;97.30
1075;DHT22;526;51.392;12.448;2023-03-14T12:57:13;14.10;97.30
1075;DHT22;526;51.392;12.448;2023-03-14T12:59:56;14.10;97.30
1075;DHT22;526;51.392;12.448;2023-03-14T13:02:26;14.00;97.20
1075;DHT22;526;51.392;12.448;2023-03-14T13:07:35;13.90;96.80
1075;DHT22;526;51.392;12.448;2023-03-14T13:12:50;14.10;96.40
1075;DHT22;526;51.392;12.448;2023-03-14T13:15:33;14.20;96.40
1075;DHT22;526;51.392;12.448;2023-03-14T13:18:03;14.10;95.50
1075;DHT22;526;51.392;12.448;2023-03-14T13:20:36;14.10;95.20
1075;DHT22;526;51.392;12.448;2023-03-14T13:23:03;14.10;95.20
1075;DHT22;526;51.392;12.448;2023-03-14T13:25:35;14.00;95.10
1075;DHT22;526;51.392;12.448;2023-03-14T13:28:01;14.10;94.60
1075;DHT22;526;51.392;12.448;2023-03-14T13:30:38;14.10;94.60
1075;DHT22;526;51.392;12.448;2023-03-14T13:33:04;14.10;94.70
1075;DHT22;526;51.392;12.448;2023-03-14T13:36:21;14.10;94.60
1075;DHT22;526;51.392;12.448;2023-03-14T13:38:29;14.20;93.90
1075;DHT22;526;51.392;12.448;2023-03-14T13:40:57;14.20;93.80
1075;DHT22;526;51.392;12.448;2023-03-14T13:43:34;14.30;94.00
1075;DHT22;526;51.392;12.448;2023-03-14T13:46:21;14.30;93.50
1075;DHT22;526;51.392;12.448;2023-03-14T13:48:56;14.40;93.40
1075;DHT22;526;51.392;12.448;2023-03-14T13:51:22;14.50;93.40
1075;DHT22;526;51.392;12.448;2023-03-14T13:53:52;14.50;92.70
1075;DHT22;526;51.392;12.448;2023-03-14T13:56:19;14.60;92.30
1075;DHT22;526;51.392;12.448;2023-03-14T13:58:45;14.80;92.50
1075;DHT22;526;51.392;12.448;2023-03-14T14:01:34;15.40;91.10
1075;DHT22;526;51.392;12.448;2023-03-14T14:04:15;15.50;90.60
1075;DHT22;526;51.392;12.448;2023-03-14T14:06:47;15.50;90.10
1075;DHT22;526;51.392;12.448;2023-03-14T14:09:19;15.60;89.90
1075;DHT22;526;51.392;12.448;2023-03-14T14:11:55;15.70;89.60
1075;DHT22;526;51.392;12.448;2023-03-14T14:14:39;16.10;89.10
1075;DHT22;526;51.392;12.448;2023-03-14T14:17:10;16.40;88.70
1075;DHT22;526;51.392;12.448;2023-03-14T14:19:36;16.40;87.10
1075;DHT22;526;51.392;12.448;2023-03-14T14:22:03;15.90;87.60
1075;DHT22;526;51.392;12.448;2023-03-14T14:24:31;15.60;88.30
1075;DHT22;526;51.392;12.448;2023-03-14T14:30:04;14.90;89.70
1075;DHT22;526;51.392;12.448;2023-03-14T14:32:38;14.70;90.30
1075;DHT22;526;51.392;12.448;2023-03-14T14:35:04;14.60;90.70
1075;DHT22;526;51.392;12.448;2023-03-14T14:37:44;14.50;90.90
1075;DHT22;526;51.392;12.448;2023-03-14T14:40:20;14.50;91.30
1075;DHT22;526;51.392;12.448;2023-03-14T14:42:47;14.40;91.50
1075;DHT22;526;51.392;12.448;2023-03-14T14:45:16;14.40;91.50
1075;DHT22;526;51.392;12.448;2023-03-14T14:50:34;14.30;92.10
1075;DHT22;526;51.392;12.448;2023-03-14T14:53:18;14.30;92.20
1075;DHT22;526;51.392;12.448;2023-03-14T14:55:53;14.30;92.50
1075;DHT22;526;51.392;12.448;2023-03-14T14:58:26;14.20;92.50
1075;DHT22;526;51.392;12.448;2023-03-14T15:01:24;14.20;93.50
1075;DHT22;526;51.392;12.448;2023-03-14T15:03:53;14.10;93.30
1075;DHT22;526;51.392;12.448;2023-03-14T15:06:19;13.90;94.90
1075;DHT22;526;51.392;12.448;2023-03-14T15:08:47;13.80;95.80
1075;DHT22;526;51.392;12.448;2023-03-14T15:11:22;13.50;97.30
1075;DHT22;526;51.392;12.448;2023-03-14T15:13:48;13.20;97.30
1075;DHT22;526;51.392;12.448;2023-03-14T15:16:17;12.20;97.30
1075;DHT22;526;51.392;12.448;2023-03-14T15:18:43;10.60;97.30
1075;DHT22;526;51.392;12.448;2023-03-14T15:21:10;9.60;97.30
1075;DHT22;526;51.392;12.448;2023-03-14T15:23:36;8.90;97.30
1075;DHT22;526;51.392;12.448;2023-03-14T15:26:02;8.50;97.30
1075;DHT22;526;51.392;12.448;2023-03-14T15:28:29;8.10;97.30
1075;DHT22;526;51.392;12.448;2023-03-14T15:30:57;7.90;97.30
1075;DHT22;526;51.392;12.448;2023-03-14T15:33:23;7.70;97.30
1075;DHT22;526;51.392;12.448;2023-03-14T15:35:49;7.60;97.30
1075;DHT22;526;51.392;12.448;2023-03-14T15:38:16;7.40;97.30
1075;DHT22;526;51.392;12.448;2023-03-14T15:40:42;7.30;97.30
1075;DHT22;526;51.392;12.448;2023-03-14T15:43:08;7.20;97.30
1075;DHT22;526;51.392;12.448;2023-03-14T15:45:33;7.10;97.30
1075;DHT22;526;51.392;12.448;2023-03-14T15:47:59;7.00;97.30
1075;DHT22;526;51.392;12.448;2023-03-14T15:50:25;6.90;97.30
1075;DHT22;526;51.392;12.448;2023-03-14T15:52:51;6.80;97.30
1075;DHT22;526;51.392;12.448;2023-03-14T15:55:17;6.70;97.30
1075;DHT22;526;51.392;12.448;2023-03-14T15:57:43;6.60;97.30
1075;DHT22;526;51.392;12.448;2023-03-14T16:00:14;6.40;97.30
1075;DHT22;526;51.392;12.448;2023-03-14T16:02:40;6.30;97.30
1075;DHT22;526;51.392;12.448;2023-03-14T16:05:07;6.20;97.30
1075;DHT22;526;51.392;12.448;2023-03-14T16:07:33;6.10;97.30
1075;DHT22;526;51.392;12.448;2023-03-14T16:09:58;6.00;97.30
1075;DHT22;526;51.392;12.448;2023-03-14T16:12:24;5.90;97.30
1075;DHT22;526;51.392;12.448;2023-03-14T16:14:49;5.80;97.30
1075;DHT22;526;51.392;12.448;2023-03-14T16:17:15;5.70;97.30
1075;DHT22;526;51.392;12.448;2023-03-14T16:19:40;5.60;97.30
1075;DHT22;526;51.392;12.448;2023-03-14T16:22:06;5.50;97.30
1075;DHT22;526;51.392;12.448;2023-03-14T16:24:32;5.40;97.30
1075;DHT22;526;51.392;12.448;2023-03-14T16:26:57;5.30;97.30
1075;DHT22;526;51.392;12.448;2023-03-14T16:29:23;5.20;97.30
1075;DHT22;526;51.392;12.448;2023-03-14T16:31:48;5.20;97.30
1075;DHT22;526;51.392;12.448;2023-03-14T16:34:14;5.10;97.30
1075;DHT22;526;51.392;12.448;2023-03-14T16:36:39;5.00;97.30
1075;DHT22;526;51.392;12.448;2023-03-14T16:39:04;4.90;97.30
1075;DHT22;526;51.392;12.448;2023-03-14T16:41:30;4.80;97.30
1075;DHT22;526;51.392;12.448;2023-03-14T16:43:59;4.80;97.30
1075;DHT22;526;51.392;12.448;2023-03-14T16:46:26;4.80;97.30
1075;DHT22;526;51.392;12.448;2023-03-14T16:48:53;4.60;97.30
1075;DHT22;526;51.392;12.448;2023-03-14T16:51:19;4.40;97.30
1075;DHT22;526;51.392;12.448;2023-03-14T16:53:45;4.30;97.30
1075;DHT22;526;51.392;12.448;2023-03-14T16:56:11;4.10;97.30
1075;DHT22;526;51.392;12.448;2023-03-14T16:58:37;4.10;97.30
1075;DHT22;526;51.392;12.448;2023-03-14T17:01:07;4.00;97.30
1075;DHT22;526;51.392;12.448;2023-03-14T17:03:36;4.00;97.30
1075;DHT22;526;51.392;12.448;2023-03-14T17:06:01;4.00;97.30
1075;DHT22;526;51.392;12.448;2023-03-14T17:08:28;4.00;97.30